sensor_id;sensor_type;location;lat;lon;timestamp;pressure;altitude;pressure_sealevel;temperature;humidity
4836;BME280;66719;51.226;6.902;2023-04-10T00:01:59;101447.22;;;7.67;100.00
4836;BME280;66719;51.226;6.902;2023-04-10T00:04:25;101440.25;;;7.65;100.00
4836;BME280;66719;51.226;6.902;2023-04-10T00:06:53;101437.56;;;7.52;100.00
4836;BME280;66719;51.226;6.902;2023-04-10T00:09:20;101435.78;;;7.45;100.00
4836;BME280;66719;51.226;6.902;2023-04-10T00:11:47;101422.81;;;7.49;100.00
4836;BME280;66719;51.226;6.902;2023-04-10T00:14:13;101421.88;;;7.43;100.00
4836;BME280;66719;51.226;6.902;2023-04-10T00:16:40;101417.53;;;7.40;100.00
4836;BME280;66719;51.226;6.902;2023-04-10T00:19:06;101412.34;;;7.45;100.00
4836;BME280;66719;51.226;6.902;2023-04-10T00:21:33;101420.19;;;7.49;100.00
4836;BME280;66719;51.226;6.902;2023-04-10T00:23:59;101417.56;;;7.46;100.00
4836;BME280;66719;51.226;6.902;2023-04-10T00:26:26;101419.28;;;7.44;100.00
4836;BME280;66719;51.226;6.902;2023-04-10T00:28:52;101411.47;;;7.43;100.00
4836;BME280;66719;51.226;6.902;2023-04-10T00:31:19;101406.19;;;7.32;100.00
4836;BME280;66719;51.226;6.902;2023-04-10T00:33:46;101407.94;;;7.33;100.00
4836;BME280;66719;51.226;6.902;2023-04-10T00:36:12;101406.22;;;7.36;100.00
4836;BME280;66719;51.226;6.902;2023-04-10T00:38:39;101396.69;;;7.40;100.00
4836;BME280;66719;51.226;6.902;2023-04-10T00:41:05;101399.25;;;7.32;100.00
4836;BME280;66719;51.226;6.902;2023-04-10T00:43:32;101394.00;;;7.28;100.00
4836;BME280;66719;51.226;6.902;2023-04-10T00:45:59;101394.00;;;7.25;100.00
4836;BME280;66719;51.226;6.902;2023-04-10T00:48:26;101384.47;;;7.27;100.00
4836;BME280;66719;51.226;6.902;2023-04-10T00:50:53;101386.19;;;7.25;100.00
4836;BME280;66719;51.226;6.902;2023-04-10T00:53:19;101391.41;;;7.25;100.00
4836;BME280;66719;51.226;6.902;2023-04-10T00:55:48;101387.97;;;7.32;100.00
4836;BME280;66719;51.226;6.902;2023-04-10T00:58:15;101387.00;;;7.19;100.00
4836;BME280;66719;51.226;6.902;2023-04-10T01:00:41;101380.00;;;7.09;100.00
4836;BME280;66719;51.226;6.902;2023-04-10T01:03:10;101386.94;;;7.10;100.00
4836;BME280;66719;51.226;6.902;2023-04-10T01:05:41;101373.94;;;7.08;100.00
4836;BME280;66719;51.226;6.902;2023-04-10T01:11:15;101376.53;;;7.10;100.00
4836;BME280;66719;51.226;6.902;2023-04-10T01:13:53;101377.41;;;7.12;100.00
4836;BME280;66719;51.226;6.902;2023-04-10T01:16:26;101369.63;;;7.14;100.00
4836;BME280;66719;51.226;6.902;2023-04-10T01:22:01;101357.44;;;7.05;100.00
4836;BME280;66719;51.226;6.902;2023-04-10T01:30:30;101351.31;;;7.00;100.00
4836;BME280;66719;51.226;6.902;2023-04-10T01:32:59;101346.06;;;6.91;100.00
4836;BME280;66719;51.226;6.902;2023-04-10T01:35:28;101346.03;;;6.89;100.00
4836;BME280;66719;51.226;6.902;2023-04-10T01:37:56;101338.25;;;6.91;100.00
4836;BME280;66719;51.226;6.902;2023-04-10T01:40:25;101345.19;;;6.92;100.00
4836;BME280;66719;51.226;6.902;2023-04-10T01:42:55;101339.16;;;6.97;100.00
4836;BME280;66719;51.226;6.902;2023-04-10T01:45:26;101333.91;;;6.91;100.00
4836;BME280;66719;51.226;6.902;2023-04-10T01:47:57;101328.69;;;6.88;100.00
4836;BME280;66719;51.226;6.902;2023-04-10T01:50:25;101329.53;;;6.86;100.00
4836;BME280;66719;51.226;6.902;2023-04-10T01:52:53;101323.50;;;6.91;100.00
4836;BME280;66719;51.226;6.902;2023-04-10T01:55:20;101327.00;;;6.98;100.00
4836;BME280;66719;51.226;6.902;2023-04-10T01:57:47;101315.72;;;6.96;100.00
4836;BME280;66719;51.226;6.902;2023-04-10T02:00:15;101326.16;;;6.99;100.00
4836;BME280;66719;51.226;6.902;2023-04-10T02:02:42;101312.25;;;6.98;100.00
4836;BME280;66719;51.226;6.902;2023-04-10T02:05:10;101316.53;;;6.87;100.00
4836;BME280;66719;51.226;6.902;2023-04-10T02:07:56;101311.25;;;6.76;100.00
4836;BME280;66719;51.226;6.902;2023-04-10T02:10:32;101321.69;;;6.79;100.00
4836;BME280;66719;51.226;6.902;2023-04-10T02:13:05;101316.50;;;6.78;100.00
4836;BME280;66719;51.226;6.902;2023-04-10T02:15:33;101306.03;;;6.73;100.00
4836;BME280;66719;51.226;6.902;2023-04-10T02:18:02;101315.50;;;6.65;100.00
4836;BME280;66719;51.226;6.902;2023-04-10T02:20:33;101312.84;;;6.58;100.00
4836;BME280;66719;51.226;6.902;2023-04-10T02:23:00;101303.38;;;6.61;100.00
4836;BME280;66719;51.226;6.902;2023-04-10T02:25:33;101303.38;;;6.63;100.00
4836;BME280;66719;51.226;6.902;2023-04-10T02:28:04;101299.91;;;6.68;100.00
4836;BME280;66719;51.226;6.902;2023-04-10T02:30:31;101300.78;;;6.69;100.00
4836;BME280;66719;51.226;6.902;2023-04-10T02:32:58;101304.28;;;6.71;100.00
4836;BME280;66719;51.226;6.902;2023-04-10T02:35:25;101306.03;;;6.73;100.00
4836;BME280;66719;51.226;6.902;2023-04-10T02:37:51;101301.69;;;6.69;100.00
4836;BME280;66719;51.226;6.902;2023-04-10T02:40:18;101308.63;;;6.73;100.00
4836;BME280;66719;51.226;6.902;2023-04-10T02:42:44;101306.91;;;6.72;100.00
4836;BME280;66719;51.226;6.902;2023-04-10T02:45:11;101307.78;;;6.73;100.00
4836;BME280;66719;51.226;6.902;2023-04-10T02:47:37;101305.16;;;6.70;100.00
4836;BME280;66719;51.226;6.902;2023-04-10T02:50:04;101301.66;;;6.66;100.00
4836;BME280;66719;51.226;6.902;2023-04-10T02:52:31;101305.13;;;6.67;100.00
4836;BME280;66719;51.226;6.902;2023-04-10T02:54:57;101304.25;;;6.68;100.00
4836;BME280;66719;51.226;6.902;2023-04-10T02:57:24;101304.31;;;6.74;100.00
4836;BME280;66719;51.226;6.902;2023-04-10T02:59:51;101298.22;;;6.75;100.00
4836;BME280;66719;51.226;6.902;2023-04-10T03:02:18;101301.69;;;6.72;100.00
4836;BME280;66719;51.226;6.902;2023-04-10T03:04:45;101297.38;;;6.76;100.00
4836;BME280;66719;51.226;6.902;2023-04-10T03:07:11;101289.56;;;6.77;100.00
4836;BME280;66719;51.226;6.902;2023-04-10T03:09:38;101292.22;;;6.80;100.00
4836;BME280;66719;51.226;6.902;2023-04-10T03:12:04;101289.56;;;6.77;100.00
4836;BME280;66719;51.226;6.902;2023-04-10T03:14:31;101286.09;;;6.77;100.00
4836;BME280;66719;51.226;6.902;2023-04-10T03:16:58;101281.78;;;6.79;100.00
4836;BME280;66719;51.226;6.902;2023-04-10T03:19:24;101274.84;;;6.78;100.00
4836;BME280;66719;51.226;6.902;2023-04-10T03:21:51;101268.75;;;6.74;100.00
4836;BME280;66719;51.226;6.902;2023-04-10T03:24:18;101259.25;;;6.78;100.00
4836;BME280;66719;51.226;6.902;2023-04-10T03:26:46;101257.50;;;6.80;100.00
4836;BME280;66719;51.226;6.902;2023-04-10T03:29:12;101255.78;;;6.79;100.00
4836;BME280;66719;51.226;6.902;2023-04-10T03:31:44;101253.13;;;6.74;100.00
4836;BME280;66719;51.226;6.902;2023-04-10T03:34:11;101248.78;;;6.72;100.00
4836;BME280;66719;51.226;6.902;2023-04-10T03:36:37;101240.13;;;6.74;100.00
4836;BME280;66719;51.226;6.902;2023-04-10T03:39:04;101244.47;;;6.77;100.00
4836;BME280;66719;51.226;6.902;2023-04-10T03:41:31;101244.50;;;6.82;100.00
4836;BME280;66719;51.226;6.902;2023-04-10T03:43:57;101242.78;;;6.85;100.00
4836;BME280;66719;51.226;6.902;2023-04-10T03:46:24;101239.34;;;6.88;100.00
4836;BME280;66719;51.226;6.902;2023-04-10T03:48:50;101242.81;;;6.90;100.00
4836;BME280;66719;51.226;6.902;2023-04-10T03:51:19;101242.81;;;6.91;100.00
4836;BME280;66719;51.226;6.902;2023-04-10T03:53:45;101236.75;;;6.92;100.00
4836;BME280;66719;51.226;6.902;2023-04-10T03:56:12;101234.13;;;6.94;100.00
4836;BME280;66719;51.226;6.902;2023-04-10T03:58:38;101228.06;;;6.93;100.00
4836;BME280;66719;51.226;6.902;2023-04-10T04:01:06;101226.38;;;6.95;100.00
4836;BME280;66719;51.226;6.902;2023-04-10T04:03:34;101235.03;;;6.97;100.00
4836;BME280;66719;51.226;6.902;2023-04-10T04:06:01;101234.16;;;6.95;100.00
4836;BME280;66719;51.226;6.902;2023-04-10T04:08:27;101228.97;;;6.97;100.00
4836;BME280;66719;51.226;6.902;2023-04-10T04:10:54;101233.31;;;6.99;100.00
4836;BME280;66719;51.226;6.902;2023-04-10T04:13:20;101234.19;;;7.03;100.00
4836;BME280;66719;51.226;6.902;2023-04-10T04:15:47;101225.53;;;7.05;100.00
4836;BME280;66719;51.226;6.902;2023-04-10T04:18:13;101230.75;;;7.10;100.00
4836;BME280;66719;51.226;6.902;2023-04-10T04:20:40;101227.25;;;7.08;100.00
4836;BME280;66719;51.226;6.902;2023-04-10T04:23:06;101229.88;;;7.08;100.00
4836;BME280;66719;51.226;6.902;2023-04-10T04:25:32;101230.75;;;7.07;100.00
4836;BME280;66719;51.226;6.902;2023-04-10T04:27:59;101231.59;;;7.09;100.00
4836;BME280;66719;51.226;6.902;2023-04-10T04:30:26;101222.94;;;7.07;100.00
4836;BME280;66719;51.226;6.902;2023-04-10T04:32:53;101217.72;;;7.08;100.00
4836;BME280;66719;51.226;6.902;2023-04-10T04:35:20;101222.94;;;7.08;100.00
4836;BME280;66719;51.226;6.902;2023-04-10T04:37:47;101222.06;;;7.11;100.00
4836;BME280;66719;51.226;6.902;2023-04-10T04:40:13;101216.88;;;7.14;100.00
4836;BME280;66719;51.226;6.902;2023-04-10T04:42:40;101216.03;;;7.14;100.00
4836;BME280;66719;51.226;6.902;2023-04-10T04:45:07;101214.28;;;7.13;100.00
4836;BME280;66719;51.226;6.902;2023-04-10T04:47:33;101216.03;;;7.15;100.00
4836;BME280;66719;51.226;6.902;2023-04-10T04:50:00;101209.94;;;7.18;100.00
4836;BME280;66719;51.226;6.902;2023-04-10T04:52:26;101216.88;;;7.20;100.00
4836;BME280;66719;51.226;6.902;2023-04-10T04:54:53;101207.38;;;7.24;100.00
4836;BME280;66719;51.226;6.902;2023-04-10T04:57:20;101213.44;;;7.29;100.00
4836;BME280;66719;51.226;6.902;2023-04-10T04:59:46;101223.00;;;7.34;100.00
4836;BME280;66719;51.226;6.902;2023-04-10T05:02:12;101216.06;;;7.38;100.00
4836;BME280;66719;51.226;6.902;2023-04-10T05:04:39;101218.69;;;7.41;100.00
4836;BME280;66719;51.226;6.902;2023-04-10T05:07:06;101217.81;;;7.47;100.00
4836;BME280;66719;51.226;6.902;2023-04-10T05:09:32;101202.22;;;7.48;100.00
4836;BME280;66719;51.226;6.902;2023-04-10T05:11:59;101214.38;;;7.60;100.00
4836;BME280;66719;51.226;6.902;2023-04-10T05:14:25;101215.28;;;7.68;100.00
4836;BME280;66719;51.226;6.902;2023-04-10T05:16:52;101214.41;;;7.74;100.00
4836;BME280;66719;51.226;6.902;2023-04-10T05:19:19;101210.91;;;7.72;100.00
4836;BME280;66719;51.226;6.902;2023-04-10T05:21:46;101217.88;;;7.79;100.00
4836;BME280;66719;51.226;6.902;2023-04-10T05:24:12;101219.63;;;7.77;100.00
4836;BME280;66719;51.226;6.902;2023-04-10T05:26:39;101223.09;;;7.74;100.00
4836;BME280;66719;51.226;6.902;2023-04-10T05:29:07;101226.56;;;7.78;100.00
4836;BME280;66719;51.226;6.902;2023-04-10T05:31:34;101217.00;;;7.81;100.00
4836;BME280;66719;51.226;6.902;2023-04-10T05:34:00;101223.97;;;7.85;100.00
4836;BME280;66719;51.226;6.902;2023-04-10T05:36:27;101230.03;;;7.89;100.00
4836;BME280;66719;51.226;6.902;2023-04-10T05:38:53;101230.06;;;7.95;100.00
4836;BME280;66719;51.226;6.902;2023-04-10T05:41:20;101227.44;;;7.97;100.00
4836;BME280;66719;51.226;6.902;2023-04-10T05:43:47;101235.28;;;7.95;100.00
4836;BME280;66719;51.226;6.902;2023-04-10T05:46:13;101225.69;;;7.99;100.00
4836;BME280;66719;51.226;6.902;2023-04-10T05:48:40;101230.91;;;8.06;100.00
4836;BME280;66719;51.226;6.902;2023-04-10T05:51:06;101227.44;;;8.07;100.00
4836;BME280;66719;51.226;6.902;2023-04-10T05:53:33;101223.09;;;8.15;100.00
4836;BME280;66719;51.226;6.902;2023-04-10T05:55:59;101211.78;;;8.15;100.00
4836;BME280;66719;51.226;6.902;2023-04-10T05:58:27;101218.75;;;8.20;100.00
4836;BME280;66719;51.226;6.902;2023-04-10T06:00:54;101212.66;;;8.21;100.00
4836;BME280;66719;51.226;6.902;2023-04-10T06:03:21;101216.13;;;8.22;100.00
4836;BME280;66719;51.226;6.902;2023-04-10T06:05:49;101217.00;;;8.29;100.00
4836;BME280;66719;51.226;6.902;2023-04-10T06:08:15;101215.28;;;8.38;100.00
4836;BME280;66719;51.226;6.902;2023-04-10T06:10:42;101222.25;;;8.44;99.52
4836;BME280;66719;51.226;6.902;2023-04-10T06:13:08;101218.75;;;8.45;98.82
4836;BME280;66719;51.226;6.902;2023-04-10T06:15:36;101217.03;;;8.52;97.86
4836;BME280;66719;51.226;6.902;2023-04-10T06:18:03;101223.97;;;8.60;96.15
4836;BME280;66719;51.226;6.902;2023-04-10T06:20:30;101215.25;;;8.63;96.70
4836;BME280;66719;51.226;6.902;2023-04-10T06:22:57;101209.16;;;8.62;97.84
4836;BME280;66719;51.226;6.902;2023-04-10T06:25:24;101203.06;;;8.59;97.81
4836;BME280;66719;51.226;6.902;2023-04-10T06:27:50;101203.91;;;8.65;96.90
4836;BME280;66719;51.226;6.902;2023-04-10T06:30:17;101214.34;;;8.70;96.72
4836;BME280;66719;51.226;6.902;2023-04-10T06:32:43;101205.66;;;8.65;98.17
4836;BME280;66719;51.226;6.902;2023-04-10T06:35:10;101215.22;;;8.66;97.54
4836;BME280;66719;51.226;6.902;2023-04-10T06:37:37;101210.88;;;8.71;98.14
4836;BME280;66719;51.226;6.902;2023-04-10T06:40:06;101216.91;;;8.88;95.62
4836;BME280;66719;51.226;6.902;2023-04-10T06:42:33;101221.22;;;8.94;96.14
4836;BME280;66719;51.226;6.902;2023-04-10T06:45:01;101212.47;;;9.02;94.71
4836;BME280;66719;51.226;6.902;2023-04-10T06:47:28;101215.94;;;9.09;94.50
4836;BME280;66719;51.226;6.902;2023-04-10T06:49:55;101212.44;;;9.13;93.60
4836;BME280;66719;51.226;6.902;2023-04-10T06:52:22;101213.25;;;9.26;92.76
4836;BME280;66719;51.226;6.902;2023-04-10T06:54:48;101207.13;;;9.28;91.77
4836;BME280;66719;51.226;6.902;2023-04-10T06:57:15;101210.56;;;9.37;90.29
4836;BME280;66719;51.226;6.902;2023-04-10T06:59:42;101198.31;;;9.45;89.81
4836;BME280;66719;51.226;6.902;2023-04-10T07:02:08;101200.03;;;9.52;88.85
4836;BME280;66719;51.226;6.902;2023-04-10T07:04:35;101200.03;;;9.52;89.85
4836;BME280;66719;51.226;6.902;2023-04-10T07:07:02;101188.63;;;9.65;89.01
4836;BME280;66719;51.226;6.902;2023-04-10T07:09:29;101186.81;;;9.73;88.37
4836;BME280;66719;51.226;6.902;2023-04-10T07:11:55;101191.16;;;9.73;86.19
4836;BME280;66719;51.226;6.902;2023-04-10T07:14:22;101189.44;;;9.73;87.50
4836;BME280;66719;51.226;6.902;2023-04-10T07:16:49;101182.41;;;9.78;85.58
4836;BME280;66719;51.226;6.902;2023-04-10T07:19:15;101179.75;;;9.84;86.35
4836;BME280;66719;51.226;6.902;2023-04-10T07:21:42;101175.25;;;9.99;84.58
4836;BME280;66719;51.226;6.902;2023-04-10T07:24:08;101178.66;;;10.07;83.69
4836;BME280;66719;51.226;6.902;2023-04-10T07:26:35;101169.06;;;10.10;83.03
4836;BME280;66719;51.226;6.902;2023-04-10T07:29:01;101180.38;;;10.11;83.49
4836;BME280;66719;51.226;6.902;2023-04-10T07:31:28;101165.50;;;10.17;81.56
4836;BME280;66719;51.226;6.902;2023-04-10T07:33:55;101163.72;;;10.23;80.77
4836;BME280;66719;51.226;6.902;2023-04-10T07:36:21;101164.59;;;10.22;81.35
4836;BME280;66719;51.226;6.902;2023-04-10T07:38:48;101161.09;;;10.24;81.06
4836;BME280;66719;51.226;6.902;2023-04-10T07:41:14;101163.72;;;10.26;79.54
4836;BME280;66719;51.226;6.902;2023-04-10T07:43:41;101149.78;;;10.25;79.54
4836;BME280;66719;51.226;6.902;2023-04-10T07:46:07;101165.38;;;10.31;79.21
4836;BME280;66719;51.226;6.902;2023-04-10T07:48:34;101152.38;;;10.27;79.90
4836;BME280;66719;51.226;6.902;2023-04-10T07:51:01;101152.38;;;10.27;79.13
4836;BME280;66719;51.226;6.902;2023-04-10T07:53:27;101143.56;;;10.32;80.19
4836;BME280;66719;51.226;6.902;2023-04-10T07:55:54;101134.75;;;10.39;78.74
4836;BME280;66719;51.226;6.902;2023-04-10T07:58:20;101134.81;;;10.36;80.35
4836;BME280;66719;51.226;6.902;2023-04-10T08:00:47;101132.13;;;10.42;79.95
4836;BME280;66719;51.226;6.902;2023-04-10T08:03:14;101129.41;;;10.50;79.49
4836;BME280;66719;51.226;6.902;2023-04-10T08:05:41;101125.00;;;10.54;78.40
4836;BME280;66719;51.226;6.902;2023-04-10T08:08:07;101123.22;;;10.57;79.36
4836;BME280;66719;51.226;6.902;2023-04-10T08:10:37;101119.59;;;10.67;78.16
4836;BME280;66719;51.226;6.902;2023-04-10T08:13:04;101124.72;;;10.76;76.56
4836;BME280;66719;51.226;6.902;2023-04-10T08:15:31;101119.41;;;10.83;76.01
4836;BME280;66719;51.226;6.902;2023-04-10T08:17:58;101112.38;;;10.85;77.21
4836;BME280;66719;51.226;6.902;2023-04-10T08:20:25;101114.00;;;10.95;76.46
4836;BME280;66719;51.226;6.902;2023-04-10T08:22:52;101102.63;;;10.94;77.00
4836;BME280;66719;51.226;6.902;2023-04-10T08:25:19;101107.63;;;11.11;74.78
4836;BME280;66719;51.226;6.902;2023-04-10T08:27:46;101099.66;;;11.22;73.36
4836;BME280;66719;51.226;6.902;2023-04-10T08:30:12;101096.97;;;11.25;74.23
4836;BME280;66719;51.226;6.902;2023-04-10T08:32:39;101099.53;;;11.29;73.61
4836;BME280;66719;51.226;6.902;2023-04-10T08:35:06;101096.00;;;11.29;75.04
4836;BME280;66719;51.226;6.902;2023-04-10T08:37:32;101094.88;;;11.45;72.08
4836;BME280;66719;51.226;6.902;2023-04-10T08:39:59;101081.72;;;11.50;71.62
4836;BME280;66719;51.226;6.902;2023-04-10T08:42:25;101079.91;;;11.53;71.67
4836;BME280;66719;51.226;6.902;2023-04-10T08:44:52;101084.09;;;11.64;69.90
4836;BME280;66719;51.226;6.902;2023-04-10T08:47:20;101074.50;;;11.64;70.14
4836;BME280;66719;51.226;6.902;2023-04-10T08:49:54;101071.72;;;11.73;69.03
4836;BME280;66719;51.226;6.902;2023-04-10T08:52:23;101071.59;;;11.78;69.68
4836;BME280;66719;51.226;6.902;2023-04-10T08:54:53;101061.06;;;11.82;68.62
4836;BME280;66719;51.226;6.902;2023-04-10T08:57:20;101063.63;;;11.85;67.82
4836;BME280;66719;51.226;6.902;2023-04-10T08:59:48;101050.31;;;11.96;67.81
4836;BME280;66719;51.226;6.902;2023-04-10T09:02:15;101052.06;;;11.96;67.68
4836;BME280;66719;51.226;6.902;2023-04-10T09:04:47;101048.50;;;12.00;68.04
4836;BME280;66719;51.226;6.902;2023-04-10T09:07:14;101044.13;;;11.99;66.51
4836;BME280;66719;51.226;6.902;2023-04-10T09:09:42;101046.75;;;12.00;67.02
4836;BME280;66719;51.226;6.902;2023-04-10T09:12:09;101041.59;;;11.94;68.37
4836;BME280;66719;51.226;6.902;2023-04-10T09:14:36;101034.59;;;11.95;68.19
4836;BME280;66719;51.226;6.902;2023-04-10T09:17:17;101045.06;;;11.96;69.11
4836;BME280;66719;51.226;6.902;2023-04-10T09:19:54;101051.03;;;12.04;69.49
4836;BME280;66719;51.226;6.902;2023-04-10T09:22:31;101045.63;;;12.12;68.27
4836;BME280;66719;51.226;6.902;2023-04-10T09:24:59;101048.00;;;12.24;67.34
4836;BME280;66719;51.226;6.902;2023-04-10T09:27:31;101053.06;;;12.35;67.23
4836;BME280;66719;51.226;6.902;2023-04-10T09:29:58;101039.59;;;12.50;67.01
4836;BME280;66719;51.226;6.902;2023-04-10T09:32:42;101044.75;;;12.55;66.18
4836;BME280;66719;51.226;6.902;2023-04-10T09:35:13;101054.31;;;12.57;66.77
4836;BME280;66719;51.226;6.902;2023-04-10T09:37:43;101048.00;;;12.66;65.15
4836;BME280;66719;51.226;6.902;2023-04-10T09:40:23;101041.69;;;12.74;64.82
4836;BME280;66719;51.226;6.902;2023-04-10T09:42:51;101044.16;;;12.82;64.43
4836;BME280;66719;51.226;6.902;2023-04-10T09:45:17;101031.59;;;12.95;65.40
4836;BME280;66719;51.226;6.902;2023-04-10T09:48:05;101023.56;;;13.01;61.49
4836;BME280;66719;51.226;6.902;2023-04-10T09:50:34;101017.44;;;13.00;61.29
4836;BME280;66719;51.226;6.902;2023-04-10T09:53:04;101015.47;;;13.09;62.46
4836;BME280;66719;51.226;6.902;2023-04-10T09:55:33;101022.50;;;13.08;60.88
4836;BME280;66719;51.226;6.902;2023-04-10T09:58:03;101014.72;;;13.05;63.44
4836;BME280;66719;51.226;6.902;2023-04-10T10:00:29;101013.88;;;13.03;62.61
4836;BME280;66719;51.226;6.902;2023-04-10T10:02:58;101003.16;;;13.11;63.80
4836;BME280;66719;51.226;6.902;2023-04-10T10:05:26;101004.59;;;13.25;61.22
4836;BME280;66719;51.226;6.902;2023-04-10T10:07:56;100999.31;;;13.25;61.78
4836;BME280;66719;51.226;6.902;2023-04-10T10:10:24;100997.59;;;13.24;60.96
4836;BME280;66719;51.226;6.902;2023-04-10T10:12:53;100991.44;;;13.25;59.81
4836;BME280;66719;51.226;6.902;2023-04-10T10:15:28;100991.53;;;13.22;61.21
4836;BME280;66719;51.226;6.902;2023-04-10T10:18:06;100981.69;;;13.29;59.80
4836;BME280;66719;51.226;6.902;2023-04-10T10:20:36;100966.53;;;13.40;59.47
4836;BME280;66719;51.226;6.902;2023-04-10T10:23:06;100969.88;;;13.47;60.63
4836;BME280;66719;51.226;6.902;2023-04-10T10:25:34;100968.63;;;13.60;59.27
4836;BME280;66719;51.226;6.902;2023-04-10T10:28:02;100957.78;;;13.71;58.88
4836;BME280;66719;51.226;6.902;2023-04-10T10:30:33;100956.66;;;13.79;58.43
4836;BME280;66719;51.226;6.902;2023-04-10T10:33:01;100958.31;;;13.83;59.17
4836;BME280;66719;51.226;6.902;2023-04-10T10:35:31;100959.94;;;13.88;58.08
4836;BME280;66719;51.226;6.902;2023-04-10T10:37:59;100946.41;;;14.01;58.21
4836;BME280;66719;51.226;6.902;2023-04-10T10:40:30;100935.72;;;14.06;57.01
4836;BME280;66719;51.226;6.902;2023-04-10T10:43:36;100928.72;;;14.05;57.31
4836;BME280;66719;51.226;6.902;2023-04-10T10:46:16;100916.38;;;14.07;56.83
4836;BME280;66719;51.226;6.902;2023-04-10T10:48:57;100913.84;;;14.04;56.79
4836;BME280;66719;51.226;6.902;2023-04-10T10:51:44;100893.31;;;14.15;56.91
4836;BME280;66719;51.226;6.902;2023-04-10T10:54:34;100895.06;;;14.14;57.71
4836;BME280;66719;51.226;6.902;2023-04-10T10:57:44;100893.94;;;14.23;57.65
4836;BME280;66719;51.226;6.902;2023-04-10T11:00:11;100888.53;;;14.28;55.92
4836;BME280;66719;51.226;6.902;2023-04-10T11:02:38;100876.13;;;14.31;56.27
4836;BME280;66719;51.226;6.902;2023-04-10T11:05:04;100872.56;;;14.32;56.57
4836;BME280;66719;51.226;6.902;2023-04-10T11:08:12;100868.84;;;14.39;58.79
4836;BME280;66719;51.226;6.902;2023-04-10T11:11:01;100865.13;;;14.47;58.70
4836;BME280;66719;51.226;6.902;2023-04-10T11:13:29;100847.59;;;14.46;57.41
4836;BME280;66719;51.226;6.902;2023-04-10T11:15:56;100843.44;;;14.65;57.25
4836;BME280;66719;51.226;6.902;2023-04-10T11:31:38;100832.28;;;14.83;53.51
4836;BME280;66719;51.226;6.902;2023-04-10T11:34:06;100834.78;;;14.88;52.50
4836;BME280;66719;51.226;6.902;2023-04-10T11:36:34;100830.25;;;14.91;52.77
4836;BME280;66719;51.226;6.902;2023-04-10T11:39:11;100820.34;;;14.98;53.58
4836;BME280;66719;51.226;6.902;2023-04-10T11:41:45;100818.63;;;14.97;53.45
4836;BME280;66719;51.226;6.902;2023-04-10T11:46:52;100817.81;;;14.95;53.07
4836;BME280;66719;51.226;6.902;2023-04-10T11:49:21;100806.97;;;15.03;51.60
4836;BME280;66719;51.226;6.902;2023-04-10T11:51:49;100791.81;;;15.09;52.92
4836;BME280;66719;51.226;6.902;2023-04-10T11:54:22;100786.66;;;15.06;51.15
4836;BME280;66719;51.226;6.902;2023-04-10T11:56:57;100793.75;;;15.04;52.89
4836;BME280;66719;51.226;6.902;2023-04-10T11:59:24;100783.88;;;15.09;52.47
4836;BME280;66719;51.226;6.902;2023-04-10T12:04:57;100790.72;;;15.15;51.31
4836;BME280;66719;51.226;6.902;2023-04-10T12:07:23;100778.13;;;15.23;52.79
4836;BME280;66719;51.226;6.902;2023-04-10T12:09:56;100764.47;;;15.35;52.73
4836;BME280;66719;51.226;6.902;2023-04-10T12:12:36;100754.69;;;15.37;50.96
4836;BME280;66719;51.226;6.902;2023-04-10T12:15:13;100756.47;;;15.37;50.96
4836;BME280;66719;51.226;6.902;2023-04-10T12:17:48;100754.09;;;15.31;51.79
4836;BME280;66719;51.226;6.902;2023-04-10T12:20:16;100748.81;;;15.31;50.95
4836;BME280;66719;51.226;6.902;2023-04-10T12:22:43;100756.56;;;15.35;51.21
4836;BME280;66719;51.226;6.902;2023-04-10T12:25:11;100761.81;;;15.35;50.59
4836;BME280;66719;51.226;6.902;2023-04-10T12:27:37;100750.53;;;15.32;50.76
4836;BME280;66719;51.226;6.902;2023-04-10T12:30:06;100741.75;;;15.31;50.62
4836;BME280;66719;51.226;6.902;2023-04-10T12:32:33;100740.72;;;15.35;51.27
4836;BME280;66719;51.226;6.902;2023-04-10T12:35:00;100723.47;;;15.26;52.22
4836;BME280;66719;51.226;6.902;2023-04-10T12:37:47;100740.63;;;15.38;52.53
4836;BME280;66719;51.226;6.902;2023-04-10T12:40:13;100743.56;;;15.52;51.57
4836;BME280;66719;51.226;6.902;2023-04-10T12:42:41;100730.88;;;15.64;50.29
4836;BME280;66719;51.226;6.902;2023-04-10T12:45:09;100724.28;;;15.74;49.47
4836;BME280;66719;51.226;6.902;2023-04-10T12:47:46;100710.59;;;15.86;49.89
4836;BME280;66719;51.226;6.902;2023-04-10T12:50:17;100698.94;;;15.92;49.63
4836;BME280;66719;51.226;6.902;2023-04-10T12:52:45;100704.94;;;15.95;48.24
4836;BME280;66719;51.226;6.902;2023-04-10T12:55:26;100706.78;;;15.93;49.05
4836;BME280;66719;51.226;6.902;2023-04-10T12:57:54;100700.56;;;15.94;48.67
4836;BME280;66719;51.226;6.902;2023-04-10T13:00:22;100697.78;;;15.97;48.53
4836;BME280;66719;51.226;6.902;2023-04-10T13:02:49;100697.00;;;15.95;48.74
4836;BME280;66719;51.226;6.902;2023-04-10T13:05:15;100700.75;;;16.11;48.43
4836;BME280;66719;51.226;6.902;2023-04-10T13:07:42;100687.06;;;16.22;47.83
4836;BME280;66719;51.226;6.902;2023-04-10T13:10:10;100672.50;;;16.34;48.40
4836;BME280;66719;51.226;6.902;2023-04-10T13:12:36;100671.22;;;16.43;48.38
4836;BME280;66719;51.226;6.902;2023-04-10T13:15:04;100666.38;;;16.32;47.98
4836;BME280;66719;51.226;6.902;2023-04-10T13:17:33;100656.09;;;16.26;48.63
4836;BME280;66719;51.226;6.902;2023-04-10T13:19:59;100661.66;;;16.20;48.52
4836;BME280;66719;51.226;6.902;2023-04-10T13:22:26;100656.50;;;16.17;47.48
4836;BME280;66719;51.226;6.902;2023-04-10T13:24:52;100658.59;;;16.08;47.74
4836;BME280;66719;51.226;6.902;2023-04-10T13:27:19;100648.16;;;16.05;48.68
4836;BME280;66719;51.226;6.902;2023-04-10T13:29:45;100647.22;;;16.06;48.67
4836;BME280;66719;51.226;6.902;2023-04-10T13:32:12;100633.69;;;16.14;48.35
4836;BME280;66719;51.226;6.902;2023-04-10T13:34:38;100632.91;;;16.12;48.68
4836;BME280;66719;51.226;6.902;2023-04-10T13:37:05;100611.69;;;16.14;47.65
4836;BME280;66719;51.226;6.902;2023-04-10T13:39:31;100608.41;;;16.08;46.42